createdAt,value
2023-03-10T00:00:38.260Z,96392.63
2023-03-10T00:03:04.887Z,96402.06
2023-03-10T00:05:31.649Z,96392.63
2023-03-10T00:07:58.286Z,96387.63
2023-03-10T00:10:25.003Z,96390.72
2023-03-10T00:12:51.674Z,96392.97
2023-03-10T00:15:18.623Z,96396.94
2023-03-10T00:17:55.502Z,96395.34
2023-03-10T00:20:23.031Z,96384.53
2023-03-10T00:22:49.673Z,96384.06
2023-03-10T00:25:16.622Z,96383.56
2023-03-10T00:27:43.375Z,96381.63
2023-03-10T00:30:11.092Z,96384.22
2023-03-10T00:32:37.780Z,96385.53
2023-03-10T00:35:14.475Z,96371.81
2023-03-10T00:37:41.096Z,96367.31
2023-03-10T00:40:11.113Z,96365.28
2023-03-10T00:42:37.753Z,96373.84
2023-03-10T00:45:04.956Z,96359.22
2023-03-10T00:47:31.671Z,96356.69
2023-03-10T00:49:58.301Z,96358.22
2023-03-10T00:52:24.998Z,96349.38
2023-03-10T00:54:51.703Z,96353.94
2023-03-10T00:57:18.377Z,96340.56
2023-03-10T00:59:50.314Z,96343.09
2023-03-10T01:02:21.711Z,96342.91
2023-03-10T01:04:48.727Z,96331.56
2023-03-10T01:07:15.460Z,96329.69
2023-03-10T01:09:43.882Z,96329.66
2023-03-10T01:12:10.460Z,96329.16
2023-03-10T01:14:37.074Z,96326.81
2023-03-10T01:17:05.709Z,96320.72
2023-03-10T01:19:32.532Z,96323.56
2023-03-10T01:21:59.198Z,96320.81
2023-03-10T01:24:25.817Z,96310.50
2023-03-10T01:26:52.469Z,96311.09
2023-03-10T01:29:19.072Z,96309.53
2023-03-10T01:31:45.741Z,96308.25
2023-03-10T01:34:12.826Z,96297.66
2023-03-10T01:36:41.728Z,96303.53
2023-03-10T01:39:08.382Z,96302.25
2023-03-10T01:41:39.503Z,96297.81
2023-03-10T01:44:14.174Z,96286.63
2023-03-10T01:46:48.935Z,96285.44
2023-03-10T01:49:28.101Z,96287.59
2023-03-10T01:52:06.405Z,96275.88
2023-03-10T01:55:07.282Z,96283.47
2023-03-10T01:57:40.577Z,96271.03
2023-03-10T02:00:14.748Z,96271.19
2023-03-10T02:03:03.999Z,96262.91
2023-03-10T02:05:32.103Z,96262.91
2023-03-10T02:08:00.391Z,96261.59
2023-03-10T02:10:27.234Z,96255.88
2023-03-10T02:12:54.475Z,96252.63
2023-03-10T02:15:21.257Z,96255.50
2023-03-10T02:17:50.711Z,96249.00
2023-03-10T02:20:47.630Z,96246.41
2023-03-10T02:23:29.648Z,96233.63
2023-03-10T02:26:16.949Z,96235.41
2023-03-10T02:28:44.433Z,96231.69
2023-03-10T02:31:12.234Z,96242.34
2023-03-10T02:33:39.353Z,96227.47
2023-03-10T02:36:20.222Z,96213.47
2023-03-10T02:38:47.505Z,96225.53
2023-03-10T02:41:25.139Z,96237.84
2023-03-10T02:43:53.346Z,96219.38
2023-03-10T02:46:20.696Z,96228.09
2023-03-10T02:48:47.441Z,96218.88
2023-03-10T02:51:23.621Z,96222.28
2023-03-10T02:53:50.231Z,96224.06
2023-03-10T02:56:16.896Z,96225.78
2023-03-10T02:58:43.757Z,96226.50
2023-03-10T03:01:10.694Z,96219.78
2023-03-10T03:03:46.464Z,96217.19
2023-03-10T03:06:13.817Z,96220.41
2023-03-10T03:08:41.417Z,96213.03
2023-03-10T03:11:09.104Z,96208.84
2023-03-10T03:13:35.832Z,96203.69
2023-03-10T03:16:13.422Z,96203.72
2023-03-10T03:18:40.790Z,96199.38
2023-03-10T03:21:15.819Z,96218.16
2023-03-10T03:23:43.857Z,96203.69
2023-03-10T03:26:20.372Z,96207.72
2023-03-10T03:28:47.123Z,96219.94
2023-03-10T03:31:20.721Z,96211.75
2023-03-10T03:33:48.164Z,96227.78
2023-03-10T03:36:15.552Z,96221.72
2023-03-10T03:38:42.291Z,96219.22
2023-03-10T03:41:09.662Z,96221.47
2023-03-10T03:43:36.363Z,96230.94
2023-03-10T03:46:04.314Z,96221.41
2023-03-10T03:48:31.168Z,96225.06
2023-03-10T03:50:57.746Z,96233.03
2023-03-10T03:53:24.361Z,96213.94
2023-03-10T03:55:51.228Z,96214.25
2023-03-10T03:58:19.090Z,96198.91
2023-03-10T04:00:45.751Z,96213.25
2023-03-10T04:03:12.424Z,96216.25
2023-03-10T04:05:39.549Z,96215.91
2023-03-10T04:08:06.912Z,96207.19
2023-03-10T04:10:33.786Z,96209.78
2023-03-10T04:13:03.781Z,96203.97
2023-03-10T04:15:30.484Z,96195.13
2023-03-10T04:17:57.806Z,96197.31
2023-03-10T04:20:25.567Z,96203.31
2023-03-10T04:22:52.455Z,96200.28
2023-03-10T04:25:19.210Z,96210.09
2023-03-10T04:27:45.779Z,96198.47
2023-03-10T04:30:14.719Z,96201.72
2023-03-10T04:32:41.433Z,96199.88
2023-03-10T04:35:08.786Z,96202.00
2023-03-10T04:37:35.500Z,96194.06
2023-03-10T04:40:08.186Z,96188.41
2023-03-10T04:42:35.498Z,96187.28
2023-03-10T04:45:02.429Z,96191.06
2023-03-10T04:47:29.002Z,96187.47
2023-03-10T04:49:55.561Z,96193.66
2023-03-10T04:52:22.126Z,96180.00
2023-03-10T04:54:48.753Z,96194.16
2023-03-10T04:57:16.146Z,96186.50
2023-03-10T04:59:42.905Z,96179.09
2023-03-10T05:02:09.618Z,96168.50
2023-03-10T05:04:36.346Z,96172.72
2023-03-10T05:07:03.040Z,96176.94
2023-03-10T05:09:29.607Z,96182.66
2023-03-10T05:11:56.182Z,96173.59
2023-03-10T05:14:22.850Z,96165.78
2023-03-10T05:16:50.277Z,96181.63
2023-03-10T05:19:17.228Z,96173.78
2023-03-10T05:21:43.844Z,96160.97
2023-03-10T05:24:10.435Z,96163.09
2023-03-10T05:26:37.127Z,96167.75
2023-03-10T05:29:04.726Z,96162.09
2023-03-10T05:31:31.391Z,96152.13
2023-03-10T05:33:58.054Z,96152.72
2023-03-10T05:36:24.788Z,96143.97
2023-03-10T05:38:52.624Z,96144.38
2023-03-10T05:41:19.500Z,96145.66
2023-03-10T05:43:46.080Z,96135.59
2023-03-10T05:46:14.968Z,96141.03
2023-03-10T05:48:41.657Z,96147.59
2023-03-10T05:51:12.577Z,96142.28
2023-03-10T05:53:40.049Z,96148.47
2023-03-10T05:56:13.201Z,96147.06
2023-03-10T05:58:40.612Z,96140.34
2023-03-10T06:01:07.640Z,96149.66
2023-03-10T06:03:35.730Z,96154.94
2023-03-10T06:06:02.771Z,96163.69
2023-03-10T06:08:29.959Z,96168.31
2023-03-10T06:10:57.725Z,96172.81
2023-03-10T06:13:25.484Z,96170.16
2023-03-10T06:15:59.352Z,96163.69
2023-03-10T06:18:27.800Z,96167.31
2023-03-10T06:20:54.845Z,96166.28
2023-03-10T06:23:23.041Z,96164.81
2023-03-10T06:26:06.812Z,96164.06
2023-03-10T06:28:37.165Z,96156.66
2023-03-10T06:31:08.108Z,96163.69
2023-03-10T06:33:35.461Z,96168.41
2023-03-10T06:36:02.762Z,96167.50
2023-03-10T06:38:30.468Z,96163.22
2023-03-10T06:40:58.127Z,96156.84
2023-03-10T06:43:25.269Z,96150.63
2023-03-10T06:45:52.066Z,96156.75
2023-03-10T06:48:18.988Z,96147.94
2023-03-10T06:50:50.943Z,96154.16
2023-03-10T06:53:20.259Z,96147.75
2023-03-10T06:56:18.818Z,96142.84
2023-03-10T06:58:45.757Z,96138.59
2023-03-10T07:01:33.556Z,96140.81
2023-03-10T07:04:01.543Z,96154.09
2023-03-10T07:06:29.141Z,96134.59
2023-03-10T07:08:56.234Z,96141.28
2023-03-10T07:11:24.731Z,96139.47
2023-03-10T07:13:52.320Z,96139.09
2023-03-10T07:16:19.351Z,96136.22
2023-03-10T07:18:46.037Z,96131.53
2023-03-10T07:21:17.654Z,96129.75
2023-03-10T07:23:45.044Z,96124.50
2023-03-10T07:26:18.536Z,96136.19
2023-03-10T07:28:46.115Z,96139.81
2023-03-10T07:31:14.382Z,96139.75
2023-03-10T07:33:41.029Z,96139.53
2023-03-10T07:36:14.572Z,96134.25
2023-03-10T07:38:41.453Z,96145.88
2023-03-10T07:41:11.007Z,96146.75
2023-03-10T07:43:38.144Z,96147.59
2023-03-10T07:46:06.888Z,96152.56
2023-03-10T07:48:34.027Z,96140.69
2023-03-10T07:51:01.914Z,96146.16
2023-03-10T07:53:28.915Z,96153.56
2023-03-10T07:55:56.273Z,96149.22
2023-03-10T07:58:24.262Z,96132.84
2023-03-10T08:00:56.575Z,96128.41
2023-03-10T08:03:25.620Z,96129.09
2023-03-10T08:05:52.349Z,96125.34
2023-03-10T08:08:21.076Z,96125.31
2023-03-10T08:10:47.724Z,96131.41
2023-03-10T08:13:15.086Z,96131.44
2023-03-10T08:15:42.391Z,96124.91
2023-03-10T08:18:09.444Z,96128.06
2023-03-10T08:20:36.904Z,96120.47
2023-03-10T08:23:04.104Z,96125.94
2023-03-10T08:25:31.156Z,96124.28
2023-03-10T08:27:57.832Z,96142.53
2023-03-10T08:30:25.744Z,96125.69
2023-03-10T08:32:52.342Z,96141.72
2023-03-10T08:35:19.161Z,96156.19
2023-03-10T08:37:55.128Z,96157.25
2023-03-10T08:40:22.121Z,96154.13
2023-03-10T08:42:48.792Z,96162.84
2023-03-10T08:45:15.517Z,96155.97
2023-03-10T08:47:42.461Z,96163.34
2023-03-10T08:50:11.003Z,96164.72
2023-03-10T08:52:37.983Z,96159.34
2023-03-10T08:55:05.957Z,96159.81
2023-03-10T08:57:33.205Z,96152.09
2023-03-10T09:00:00.216Z,96155.81
2023-03-10T09:02:29.243Z,96152.78
2023-03-10T09:04:55.901Z,96160.25
2023-03-10T09:07:22.451Z,96162.03
2023-03-10T09:09:49.092Z,96159.72
2023-03-10T09:12:15.745Z,96159.81
2023-03-10T09:14:43.682Z,96171.25
2023-03-10T09:17:12.027Z,96162.88
2023-03-10T09:19:38.778Z,96172.19
2023-03-10T09:22:05.468Z,96176.44
2023-03-10T09:24:32.360Z,96174.44
2023-03-10T09:26:59.001Z,96165.72
2023-03-10T09:29:42.230Z,96164.19
2023-03-10T09:32:10.458Z,96169.13
2023-03-10T09:34:37.133Z,96168.66
2023-03-10T09:37:06.348Z,96182.72
2023-03-10T09:39:34.873Z,96187.66
2023-03-10T09:42:26.093Z,96179.91
2023-03-10T09:45:37.556Z,96189.66
2023-03-10T09:48:26.309Z,96179.22
2023-03-10T09:50:56.383Z,96173.06
2023-03-10T09:53:56.877Z,96177.41
2023-03-10T09:56:32.410Z,96170.97
2023-03-10T09:59:29.666Z,96171.28
2023-03-10T10:01:57.506Z,96173.88
2023-03-10T10:04:43.166Z,96183.91
2023-03-10T10:07:20.965Z,96188.13
2023-03-10T10:10:18.869Z,96189.88
2023-03-10T10:12:49.725Z,96187.44
2023-03-10T10:15:22.672Z,96189.72
2023-03-10T10:18:19.680Z,96179.03
2023-03-10T10:21:00.201Z,96210.06
2023-03-10T10:23:49.739Z,96192.13
2023-03-10T10:26:18.875Z,96186.16
2023-03-10T10:28:57.362Z,96188.91
2023-03-10T10:31:31.293Z,96192.63
2023-03-10T10:34:07.015Z,96191.41
2023-03-10T10:36:38.088Z,96183.25
2023-03-10T10:39:28.350Z,96188.78
2023-03-10T10:42:12.321Z,96197.44
2023-03-10T10:44:43.221Z,96181.41
2023-03-10T10:47:36.433Z,96187.09
2023-03-10T10:50:33.896Z,96181.31
2023-03-10T10:53:34.292Z,96180.56
2023-03-10T10:56:19.904Z,96180.81
2023-03-10T10:59:02.439Z,96178.44
2023-03-10T11:01:57.266Z,96183.13
2023-03-10T11:04:27.255Z,96192.19
2023-03-10T11:07:11.390Z,96187.44
2023-03-10T11:09:38.388Z,96194.38
2023-03-10T11:12:24.459Z,96202.97
2023-03-10T11:15:03.009Z,96193.75
2023-03-10T11:17:50.277Z,96182.88
2023-03-10T11:20:50.596Z,96177.56
2023-03-10T11:23:31.743Z,96184.31
2023-03-10T11:26:22.453Z,96187.53
2023-03-10T11:29:22.387Z,96184.97
2023-03-10T11:32:18.604Z,96194.06
2023-03-10T11:34:50.272Z,96184.56
2023-03-10T11:37:34.102Z,96191.63
2023-03-10T11:40:16.174Z,96183.69
2023-03-10T11:42:55.257Z,96173.94
2023-03-10T11:45:37.042Z,96176.22
2023-03-10T11:48:44.323Z,96166.59
2023-03-10T11:51:22.117Z,96167.13
2023-03-10T11:53:56.033Z,96179.00
2023-03-10T11:56:24.908Z,96174.28
2023-03-10T11:59:01.799Z,96169.31
2023-03-10T12:01:40.468Z,96170.25
2023-03-10T12:04:30.794Z,96175.97
2023-03-10T12:07:23.548Z,96166.28
2023-03-10T12:09:54.578Z,96167.44
2023-03-10T12:12:32.968Z,96157.75
2023-03-10T12:15:05.892Z,96163.09
2023-03-10T12:17:32.522Z,96162.53
2023-03-10T12:20:27.400Z,96156.22
2023-03-10T12:23:26.667Z,96151.25
2023-03-10T12:25:53.440Z,96152.16
2023-03-10T12:28:24.135Z,96145.38
2023-03-10T12:30:56.395Z,96154.84
2023-03-10T12:33:32.222Z,96137.97
2023-03-10T12:36:40.593Z,96132.94
2023-03-10T12:39:40.881Z,96130.28
2023-03-10T12:42:35.201Z,96125.31
2023-03-10T12:45:29.152Z,96126.22
2023-03-10T12:48:11.276Z,96129.00
2023-03-10T12:50:54.072Z,96123.44
2023-03-10T12:53:44.295Z,96126.59
2023-03-10T12:56:13.875Z,96123.88
2023-03-10T12:58:47.650Z,96122.41
2023-03-10T13:01:20.756Z,96124.66
2023-03-10T13:03:52.368Z,96123.00
2023-03-10T13:06:28.124Z,96131.50
2023-03-10T13:09:29.427Z,96131.38
2023-03-10T13:12:03.568Z,96139.03
2023-03-10T13:14:39.905Z,96138.66
2023-03-10T13:17:15.953Z,96126.56
2023-03-10T13:19:42.551Z,96133.31
2023-03-10T13:22:16.824Z,96124.97
2023-03-10T13:24:43.683Z,96112.56
2023-03-10T13:27:19.352Z,96117.13
2023-03-10T13:30:02.871Z,96119.94
2023-03-10T13:32:31.464Z,96113.56
2023-03-10T13:34:59.063Z,96107.69
2023-03-10T13:37:26.033Z,96109.34
2023-03-10T13:39:53.307Z,96112.63
2023-03-10T13:42:42.579Z,96108.16
2023-03-10T13:45:23.013Z,96117.31
2023-03-10T13:47:52.560Z,96112.34
2023-03-10T13:50:19.315Z,96118.31
2023-03-10T13:52:57.038Z,96110.38
2023-03-10T13:55:24.190Z,96113.63
2023-03-10T13:57:51.858Z,96110.75
2023-03-10T14:00:22.550Z,96106.22
2023-03-10T14:02:51.860Z,96109.13
2023-03-10T14:05:45.599Z,96103.06
2023-03-10T14:08:28.600Z,96100.34
2023-03-10T14:11:34.674Z,96097.19
2023-03-10T14:14:02.392Z,96106.47
2023-03-10T14:16:55.010Z,96099.44
2023-03-10T14:19:43.359Z,96099.59
2023-03-10T14:22:35.679Z,96098.03
2023-03-10T14:25:09.218Z,96102.69
2023-03-10T14:27:41.058Z,96106.78
2023-03-10T14:30:26.559Z,96116.78
2023-03-10T14:32:54.736Z,96109.56
2023-03-10T14:35:23.217Z,96109.91
2023-03-10T14:37:51.367Z,96119.69
2023-03-10T14:40:20.643Z,96117.03
2023-03-10T14:42:50.178Z,96112.72
2023-03-10T14:45:35.302Z,96111.97
2023-03-10T14:48:11.425Z,96102.66
2023-03-10T14:50:38.163Z,96097.72
2023-03-10T14:53:15.323Z,96102.53
2023-03-10T14:55:44.110Z,96106.78
2023-03-10T14:58:21.093Z,96101.91
2023-03-10T15:00:48.830Z,96110.97
2023-03-10T15:03:18.732Z,96094.09
2023-03-10T15:05:49.051Z,96098.91
2023-03-10T15:08:17.437Z,96117.50
2023-03-10T15:10:48.739Z,96107.53
2023-03-10T15:13:18.256Z,96119.47
2023-03-10T15:15:47.340Z,96114.31
2023-03-10T15:18:18.806Z,96104.19
2023-03-10T15:20:45.607Z,96093.66
2023-03-10T15:23:16.531Z,96101.53
2023-03-10T15:25:46.066Z,96099.72
2023-03-10T15:28:13.760Z,96094.66
2023-03-10T15:30:40.993Z,96103.97
2023-03-10T15:33:07.918Z,96090.75
2023-03-10T15:35:35.454Z,96097.50
2023-03-10T15:38:02.381Z,96104.28
2023-03-10T15:40:32.430Z,96114.19
2023-03-10T15:42:59.832Z,96089.38
2023-03-10T15:45:29.385Z,96100.81
2023-03-10T15:47:57.462Z,96100.84
2023-03-10T15:50:24.612Z,96120.78
2023-03-10T15:52:56.741Z,96119.88
2023-03-10T15:55:24.862Z,96116.81
2023-03-10T15:57:52.095Z,96148.59
2023-03-10T16:00:21.919Z,96147.78
2023-03-10T16:02:55.050Z,96148.16
2023-03-10T16:05:22.080Z,96132.63
2023-03-10T16:07:48.911Z,96125.69
2023-03-10T16:10:19.792Z,96123.09
2023-03-10T16:12:46.863Z,96157.97
2023-03-10T16:15:16.317Z,96116.91
2023-03-10T16:17:44.281Z,96116.78
2023-03-10T16:20:16.760Z,96121.38
2023-03-10T16:22:43.527Z,96131.22
2023-03-10T16:25:16.739Z,96141.97
2023-03-10T16:27:45.626Z,96154.53
2023-03-10T16:30:15.721Z,96155.84
2023-03-10T16:32:47.391Z,96166.16
2023-03-10T16:35:15.046Z,96172.25
2023-03-10T16:37:42.309Z,96168.59
2023-03-10T16:40:10.507Z,96150.66
2023-03-10T16:42:37.195Z,96171.69
2023-03-10T16:45:05.903Z,96165.88
2023-03-10T16:47:33.421Z,96179.91
2023-03-10T16:50:00.181Z,96171.72
2023-03-10T16:52:26.858Z,96176.06
2023-03-10T16:54:58.593Z,96175.19
2023-03-10T16:57:25.210Z,96196.88
2023-03-10T16:59:51.790Z,96201.06
2023-03-10T17:02:18.408Z,96200.13
2023-03-10T17:04:45.702Z,96208.53
2023-03-10T17:07:12.518Z,96216.53
2023-03-10T17:09:39.117Z,96226.19
2023-03-10T17:12:06.860Z,96229.00
2023-03-10T17:14:33.444Z,96228.91
2023-03-10T17:17:01.346Z,96226.09
2023-03-10T17:19:31.016Z,96257.28
2023-03-10T17:21:59.099Z,96256.06
2023-03-10T17:24:26.457Z,96270.00
2023-03-10T17:26:53.360Z,96284.50
2023-03-10T17:29:20.575Z,96297.66
2023-03-10T17:31:50.210Z,96305.88
2023-03-10T17:34:18.173Z,96301.34
2023-03-10T17:36:45.179Z,96308.91
2023-03-10T17:39:20.582Z,96283.56
2023-03-10T17:41:48.022Z,96304.44
2023-03-10T17:44:15.807Z,96308.63
2023-03-10T17:46:42.476Z,96321.69
2023-03-10T17:49:12.508Z,96317.16
2023-03-10T17:51:44.166Z,96318.75
2023-03-10T17:54:20.417Z,96309.03
2023-03-10T17:56:48.171Z,96301.50
2023-03-10T17:59:16.088Z,96302.53
2023-03-10T18:01:44.883Z,96316.88
2023-03-10T18:04:11.895Z,96314.69
2023-03-10T18:06:38.732Z,96316.78
2023-03-10T18:09:10.509Z,96304.69
2023-03-10T18:11:37.151Z,96314.22
2023-03-10T18:14:04.572Z,96327.88
2023-03-10T18:16:35.514Z,96358.81
2023-03-10T18:19:02.178Z,96380.41
2023-03-10T18:21:39.143Z,96386.81
2023-03-10T18:24:06.433Z,96394.81
2023-03-10T18:26:33.607Z,96379.91
2023-03-10T18:29:00.208Z,96420.50
2023-03-10T18:31:30.878Z,96410.84
2023-03-10T18:33:58.445Z,96411.00
2023-03-10T18:36:29.325Z,96415.75
2023-03-10T18:38:56.871Z,96427.50
2023-03-10T18:41:26.392Z,96436.94
2023-03-10T18:43:53.657Z,96457.53
2023-03-10T18:46:20.662Z,96474.09
2023-03-10T18:48:47.799Z,96471.84
2023-03-10T18:51:14.510Z,96479.75
2023-03-10T18:53:41.248Z,96478.81
2023-03-10T18:56:08.288Z,96467.50
2023-03-10T18:58:35.021Z,96479.63
2023-03-10T19:01:01.616Z,96479.56
2023-03-10T19:03:30.156Z,96508.63
2023-03-10T19:05:57.047Z,96509.78
2023-03-10T19:08:24.619Z,96488.94
2023-03-10T19:10:59.121Z,96499.38
2023-03-10T19:13:27.929Z,96483.44
2023-03-10T19:15:55.954Z,96512.34
2023-03-10T19:18:23.201Z,96520.88
2023-03-10T19:20:50.773Z,96544.47
2023-03-10T19:23:17.412Z,96547.88
2023-03-10T19:25:44.049Z,96549.91
2023-03-10T19:28:10.729Z,96562.94
2023-03-10T19:30:42.603Z,96550.25
2023-03-10T19:33:10.766Z,96583.13
2023-03-10T19:35:38.533Z,96594.19
2023-03-10T19:38:05.948Z,96602.72
2023-03-10T19:40:33.061Z,96628.41
2023-03-10T19:43:00.404Z,96632.84
2023-03-10T19:45:27.449Z,96636.06
2023-03-10T19:47:57.744Z,96648.44
2023-03-10T19:50:25.226Z,96678.81
2023-03-10T19:52:52.179Z,96674.44
2023-03-10T19:55:23.107Z,96686.34
2023-03-10T19:57:53.084Z,96685.44
2023-03-10T20:00:30.765Z,96701.88
2023-03-10T20:02:57.997Z,96705.66
2023-03-10T20:05:26.627Z,96736.75
2023-03-10T20:07:53.693Z,96732.59
2023-03-10T20:10:21.734Z,96760.81
2023-03-10T20:12:50.996Z,96772.81
2023-03-10T20:15:18.010Z,96796.50
2023-03-10T20:17:44.717Z,96809.41
2023-03-10T20:20:14.813Z,96818.69
2023-03-10T20:22:45.328Z,96831.03
2023-03-10T20:25:15.820Z,96848.84
2023-03-10T20:27:43.692Z,96861.47
2023-03-10T20:30:17.923Z,96897.56
2023-03-10T20:32:45.022Z,96901.03
2023-03-10T20:35:13.290Z,96903.69
2023-03-10T20:37:41.811Z,96938.13
2023-03-10T20:40:13.344Z,96954.75
2023-03-10T20:42:40.747Z,96962.88
2023-03-10T20:45:09.347Z,96982.22
2023-03-10T20:47:36.681Z,96980.63
2023-03-10T20:50:06.872Z,97003.19
2023-03-10T20:52:37.038Z,97027.00
2023-03-10T20:55:06.386Z,97043.06
2023-03-10T20:57:33.743Z,97047.59
2023-03-10T21:00:01.038Z,97057.22
2023-03-10T21:02:27.618Z,97075.88
2023-03-10T21:04:55.486Z,97087.91
2023-03-10T21:07:22.066Z,97113.53
2023-03-10T21:09:48.657Z,97120.53
2023-03-10T21:12:18.428Z,97121.19
2023-03-10T21:14:45.921Z,97139.81
2023-03-10T21:17:12.949Z,97154.41
2023-03-10T21:19:42.292Z,97162.69
2023-03-10T21:22:09.014Z,97159.34
2023-03-10T21:24:35.617Z,97171.72
2023-03-10T21:27:03.977Z,97176.00
2023-03-10T21:29:30.609Z,97180.56
2023-03-10T21:31:57.287Z,97185.75
2023-03-10T21:34:24.037Z,97205.97
2023-03-10T21:36:50.793Z,97211.78
2023-03-10T21:39:17.860Z,97223.06
2023-03-10T21:41:44.841Z,97224.22
2023-03-10T21:44:12.040Z,97220.59
2023-03-10T21:46:38.784Z,97235.94
2023-03-10T21:49:05.493Z,97244.94
2023-03-10T21:51:34.616Z,97239.44
2023-03-10T21:54:03.010Z,97256.94
2023-03-10T21:56:29.671Z,97265.69
2023-03-10T21:58:57.072Z,97281.75
2023-03-10T22:01:25.050Z,97284.34
2023-03-10T22:03:51.662Z,97296.97
2023-03-10T22:06:18.280Z,97306.97
2023-03-10T22:08:44.888Z,97314.16
2023-03-10T22:11:12.595Z,97315.72
2023-03-10T22:13:39.914Z,97311.13
2023-03-10T22:16:10.516Z,97317.94
2023-03-10T22:18:37.594Z,97325.03
2023-03-10T22:21:04.631Z,97335.06
2023-03-10T22:23:31.281Z,97348.97
2023-03-10T22:25:57.875Z,97351.22
2023-03-10T22:28:24.493Z,97345.41
2023-03-10T22:30:51.078Z,97359.72
2023-03-10T22:33:17.873Z,97366.69
2023-03-10T22:35:51.141Z,97370.63
2023-03-10T22:38:20.117Z,97377.75
2023-03-10T22:40:47.736Z,97383.63
2023-03-10T22:43:14.645Z,97387.22
2023-03-10T22:45:43.804Z,97397.88
2023-03-10T22:48:10.621Z,97396.31
2023-03-10T22:50:41.167Z,97397.44
2023-03-10T22:53:14.837Z,97409.44
2023-03-10T22:55:43.412Z,97405.25
2023-03-10T22:58:11.043Z,97415.38
2023-03-10T23:00:39.526Z,97420.00
2023-03-10T23:03:07.129Z,97429.22
2023-03-10T23:05:33.930Z,97429.91
2023-03-10T23:08:00.597Z,97438.16
2023-03-10T23:10:31.768Z,97438.38
2023-03-10T23:13:00.571Z,97448.50
2023-03-10T23:15:31.806Z,97438.91
2023-03-10T23:18:00.144Z,97443.25
2023-03-10T23:20:31.672Z,97447.09
2023-03-10T23:23:00.925Z,97449.91
2023-03-10T23:25:35.156Z,97451.66
2023-03-10T23:28:03.485Z,97464.06
2023-03-10T23:30:30.282Z,97466.56
2023-03-10T23:32:57.354Z,97460.78
2023-03-10T23:35:31.762Z,97468.66
2023-03-10T23:38:00.175Z,97457.56
2023-03-10T23:40:28.584Z,97460.97
2023-03-10T23:42:58.793Z,97468.47
2023-03-10T23:45:28.519Z,97478.19
2023-03-10T23:47:57.766Z,97466.03
2023-03-10T23:50:36.713Z,97456.94
2023-03-10T23:53:05.863Z,97465.28
2023-03-10T23:55:37.137Z,97462.09
2023-03-10T23:58:04.889Z,97470.31
